createdAt,value
2018-09-19T01:04:19.926Z,41.70
2018-09-19T07:27:14.869Z,98.50
2018-09-19T07:29:43.221Z,99.90
2018-09-19T07:32:11.651Z,99.90
2018-09-19T07:34:40.036Z,99.90
2018-09-19T07:37:09.208Z,99.90
2018-09-19T07:39:37.557Z,99.90
2018-09-19T07:42:06.058Z,99.90
2018-09-19T07:44:34.422Z,99.90
2018-09-19T07:47:03.527Z,99.90
2018-09-19T07:49:31.914Z,99.90
2018-09-19T07:52:00.549Z,99.90
2018-09-19T07:54:29.950Z,99.90
2018-09-19T07:56:58.312Z,99.90
2018-09-19T07:59:26.707Z,99.90
2018-09-19T08:01:55.024Z,99.90
2018-09-19T08:04:23.498Z,99.90
2018-09-19T08:06:51.944Z,99.90
2018-09-19T08:09:20.282Z,99.90
2018-09-19T08:11:48.679Z,99.90
2018-09-19T08:14:17.675Z,99.90
2018-09-19T08:16:47.034Z,99.90
2018-09-19T08:19:15.464Z,99.90
2018-09-19T08:21:44.528Z,99.90
2018-09-19T08:24:13.410Z,99.90
2018-09-19T08:26:41.823Z,99.90
2018-09-19T08:29:10.290Z,99.90
2018-09-19T08:31:38.855Z,99.90
2018-09-19T08:34:07.591Z,99.90
2018-09-19T08:36:35.958Z,99.90
2018-09-19T08:39:06.888Z,99.90
2018-09-19T08:41:35.585Z,99.90
2018-09-19T08:44:04.078Z,99.90
2018-09-19T08:46:32.568Z,99.90
2018-09-19T08:49:01.036Z,99.90
2018-09-19T08:51:29.503Z,99.90
2018-09-19T08:53:57.989Z,99.90
2018-09-19T08:56:27.176Z,99.90
2018-09-19T08:58:55.638Z,99.90
2018-09-19T09:01:24.945Z,99.90
2018-09-19T09:03:53.460Z,99.90
2018-09-19T09:06:21.863Z,99.90
2018-09-19T09:08:50.242Z,99.90
2018-09-19T09:11:19.001Z,99.90
2018-09-19T09:13:47.390Z,99.90
2018-09-19T09:16:15.895Z,99.90
2018-09-19T09:18:44.314Z,99.90
2018-09-19T09:21:13.217Z,99.90
2018-09-19T09:23:41.709Z,99.90
2018-09-19T09:26:10.193Z,99.70
2018-09-19T09:28:38.597Z,99.50
2018-09-19T09:31:07.158Z,99.60
2018-09-19T09:33:35.620Z,99.50
2018-09-19T09:36:04.155Z,99.20
2018-09-19T09:38:32.733Z,99.20
2018-09-19T09:41:01.122Z,99.00
2018-09-19T09:43:29.639Z,98.70
2018-09-19T09:45:58.132Z,98.30
2018-09-19T09:48:26.575Z,97.80
2018-09-19T09:50:54.943Z,97.70
2018-09-19T09:53:23.336Z,97.70
2018-09-19T09:55:51.735Z,97.60
2018-09-19T09:58:20.735Z,97.20
2018-09-19T10:00:49.132Z,97.20
2018-09-19T10:03:17.526Z,96.80
2018-09-19T10:05:45.899Z,96.60
2018-09-19T10:08:14.320Z,96.40
2018-09-19T10:10:42.698Z,96.50
2018-09-19T10:13:10.996Z,96.00
2018-09-19T10:15:39.356Z,95.90
2018-09-19T10:18:07.764Z,95.60
2018-09-19T10:20:36.117Z,95.50
2018-09-19T10:23:04.492Z,95.90
2018-09-19T10:25:33.012Z,95.50
2018-09-19T10:28:02.798Z,95.40
2018-09-19T10:30:31.180Z,95.30
2018-09-19T10:32:59.505Z,95.10
2018-09-19T10:35:27.912Z,94.70
2018-09-19T10:37:56.273Z,94.80
2018-09-19T10:40:24.649Z,94.30
2018-09-19T10:42:53.072Z,94.10
2018-09-19T10:45:21.409Z,94.00
2018-09-19T10:47:49.765Z,93.70
2018-09-19T10:50:18.459Z,93.60
2018-09-19T10:52:47.102Z,93.70
2018-09-19T10:55:15.461Z,93.70
2018-09-19T10:57:43.904Z,93.90
2018-09-19T11:00:12.262Z,93.70
2018-09-19T11:02:40.700Z,93.70
2018-09-19T11:05:09.205Z,93.80
2018-09-19T11:07:37.667Z,93.50
2018-09-19T11:10:06.490Z,93.20
2018-09-19T11:12:34.808Z,93.10
2018-09-19T11:15:03.176Z,92.60
2018-09-19T11:17:31.729Z,92.20
2018-09-19T11:20:00.109Z,91.80
2018-09-19T11:22:28.512Z,91.80
2018-09-19T11:24:56.943Z,91.60
2018-09-19T11:27:25.349Z,91.40
2018-09-19T11:29:53.714Z,90.90
2018-09-19T11:32:22.064Z,90.60
2018-09-19T11:34:50.452Z,90.70
2018-09-19T11:37:18.859Z,90.50
2018-09-19T11:39:47.270Z,90.40
2018-09-19T11:42:15.606Z,90.30
2018-09-19T11:44:44.003Z,90.30
2018-09-19T11:47:12.430Z,89.90
2018-09-19T11:49:40.874Z,90.00
2018-09-19T11:52:09.342Z,89.70
2018-09-19T11:54:37.622Z,89.90
2018-09-19T11:57:05.979Z,88.70
2018-09-19T11:59:34.382Z,87.70
2018-09-19T12:02:02.795Z,87.00
2018-09-19T12:04:31.111Z,86.80
2018-09-19T12:06:59.547Z,86.30
2018-09-19T12:09:28.024Z,85.40
2018-09-19T12:11:56.415Z,84.70
2018-09-19T12:14:24.780Z,84.50
2018-09-19T12:16:53.237Z,83.90
2018-09-19T12:19:21.828Z,83.00
2018-09-19T12:21:50.407Z,82.10
2018-09-19T12:24:18.771Z,81.50
2018-09-19T12:26:47.202Z,79.40
2018-09-19T12:29:15.606Z,77.20
2018-09-19T12:31:43.962Z,73.30
2018-09-19T12:34:12.321Z,71.20
2018-09-19T12:36:40.912Z,69.40
2018-09-19T12:39:10.384Z,67.80
2018-09-19T12:41:38.915Z,65.70
2018-09-19T12:44:07.259Z,63.50
2018-09-19T12:46:35.889Z,63.70
2018-09-19T12:49:04.978Z,62.30
2018-09-19T12:51:33.419Z,60.70
2018-09-19T12:54:01.925Z,59.90
2018-09-19T12:56:30.275Z,58.40
2018-09-19T12:58:59.113Z,57.10
2018-09-19T13:01:27.528Z,55.30
2018-09-19T13:03:56.084Z,52.60
2018-09-19T13:06:24.456Z,51.70
2018-09-19T13:08:53.150Z,50.10
2018-09-19T13:11:21.576Z,50.20
2018-09-19T13:13:49.972Z,49.80
2018-09-19T13:16:18.427Z,48.60
2018-09-19T13:18:46.783Z,47.00
2018-09-19T13:21:15.140Z,46.60
2018-09-19T13:23:43.552Z,46.30
2018-09-19T13:26:11.938Z,45.70
2018-09-19T13:28:40.345Z,44.90
2018-09-19T13:31:08.776Z,43.50
2018-09-19T13:33:37.133Z,43.80
2018-09-19T13:36:05.651Z,43.00
2018-09-19T13:38:34.076Z,42.60
2018-09-19T13:41:02.466Z,42.60
2018-09-19T13:43:30.862Z,41.70
2018-09-19T13:45:59.309Z,42.10
2018-09-19T13:48:27.951Z,41.80
2018-09-19T13:51:30.552Z,41.90
2018-09-19T13:53:58.862Z,41.50
2018-09-19T13:56:28.034Z,40.10
2018-09-19T13:58:56.490Z,39.70
2018-09-19T14:01:24.898Z,39.60
2018-09-19T14:03:53.373Z,39.70
2018-09-19T14:06:21.794Z,39.70
2018-09-19T14:08:50.188Z,40.30
2018-09-19T14:11:18.573Z,38.90
2018-09-19T14:13:46.932Z,37.30
2018-09-19T14:16:17.574Z,36.70
2018-09-19T14:18:46.074Z,37.40
2018-09-19T14:21:14.608Z,37.30
2018-09-19T14:23:42.988Z,37.50
2018-09-19T14:26:11.654Z,36.70
2018-09-19T14:28:40.265Z,36.00
2018-09-19T14:31:08.921Z,35.10
2018-09-19T14:33:37.529Z,34.30
2018-09-19T14:36:05.888Z,33.80
2018-09-19T14:38:34.327Z,33.50
2018-09-19T14:41:02.784Z,33.60
2018-09-19T14:43:31.167Z,33.20
2018-09-19T14:45:59.774Z,32.90
2018-09-19T14:48:28.226Z,32.70
2018-09-19T14:50:56.599Z,32.60
2018-09-19T14:53:25.015Z,32.30
2018-09-19T14:55:53.356Z,32.10
2018-09-19T14:58:21.710Z,31.50
2018-09-19T15:00:50.254Z,32.50
2018-09-19T15:03:18.587Z,32.30
2018-09-19T15:05:47.091Z,32.20
2018-09-19T15:08:15.503Z,32.00
2018-09-19T15:10:43.909Z,32.40
2018-09-19T15:13:12.266Z,32.50
2018-09-19T15:15:40.583Z,31.90
2018-09-19T15:18:09.009Z,33.50
2018-09-19T15:20:37.452Z,34.10
2018-09-19T15:23:05.845Z,34.10
2018-09-19T15:25:34.212Z,35.00
2018-09-19T15:28:02.568Z,36.10
2018-09-19T15:30:31.044Z,37.30
2018-09-19T15:32:59.472Z,38.60
2018-09-19T15:35:27.853Z,39.70
2018-09-19T15:37:56.506Z,40.60
2018-09-19T15:40:24.890Z,41.20
2018-09-19T15:42:53.370Z,41.80
2018-09-19T15:45:21.828Z,42.00
2018-09-19T15:47:50.196Z,42.70
2018-09-19T15:50:18.581Z,42.90
2018-09-19T15:52:46.912Z,43.30
2018-09-19T15:55:15.315Z,43.80
2018-09-19T15:57:43.868Z,44.10
2018-09-19T16:00:12.233Z,44.40
2018-09-19T16:02:40.582Z,44.80
2018-09-19T16:05:09.020Z,45.10
2018-09-19T16:07:37.371Z,45.40
2018-09-19T16:10:05.948Z,45.40
2018-09-19T16:12:34.325Z,45.80
2018-09-19T16:15:02.643Z,45.90
2018-09-19T16:17:30.984Z,46.20
2018-09-19T16:19:59.371Z,46.30
2018-09-19T16:22:27.777Z,46.70
2018-09-19T16:24:56.242Z,47.60
2018-09-19T16:27:24.631Z,47.30
2018-09-19T16:29:53.055Z,47.40
2018-09-19T16:32:21.430Z,47.70
2018-09-19T16:34:49.819Z,48.10
2018-09-19T16:37:18.755Z,48.40
2018-09-19T16:39:47.145Z,48.60
2018-09-19T16:42:15.544Z,48.90
2018-09-19T16:44:44.007Z,49.10
2018-09-19T16:47:12.429Z,49.40
2018-09-19T16:49:40.803Z,49.70
2018-09-19T16:52:09.847Z,50.10
2018-09-19T16:54:38.316Z,50.70
2018-09-19T16:57:06.800Z,50.80
2018-09-19T16:59:35.173Z,51.00
2018-09-19T17:02:03.732Z,51.30
2018-09-19T17:04:32.209Z,51.70
2018-09-19T17:07:01.227Z,52.10
2018-09-19T17:09:29.716Z,52.40
2018-09-19T17:11:58.520Z,52.90
2018-09-19T17:14:27.019Z,53.40
2018-09-19T17:16:55.403Z,54.00
2018-09-19T17:19:24.809Z,53.90
2018-09-19T17:21:53.480Z,54.70
2018-09-19T17:24:21.944Z,54.80
2018-09-19T17:26:50.393Z,55.10
2018-09-19T17:29:18.777Z,55.40
2018-09-19T17:31:47.166Z,55.80
2018-09-19T17:34:15.534Z,56.30
2018-09-19T17:36:44.033Z,56.60
2018-09-19T17:39:13.375Z,56.80
2018-09-19T17:41:41.906Z,57.50
2018-09-19T17:44:10.688Z,58.00
2018-09-19T17:46:39.839Z,58.30
2018-09-19T17:49:08.675Z,58.60
2018-09-19T17:51:37.418Z,58.80
2018-09-19T17:54:07.170Z,59.10
2018-09-19T17:56:36.339Z,59.40
2018-09-19T17:59:04.954Z,59.60
2018-09-19T18:01:34.327Z,59.90
2018-09-19T18:04:02.842Z,60.70
2018-09-19T18:06:31.451Z,61.10
2018-09-19T18:08:59.994Z,61.40
2018-09-19T18:11:28.495Z,61.50
2018-09-19T18:13:56.908Z,62.10
2018-09-19T18:16:25.596Z,62.50
2018-09-19T18:18:53.997Z,63.20
2018-09-19T18:21:22.449Z,63.30
2018-09-19T18:23:51.365Z,63.80
2018-09-19T18:26:20.713Z,63.90
2018-09-19T18:28:49.359Z,63.90
2018-09-19T18:31:18.004Z,64.20
2018-09-19T18:33:46.461Z,64.80
2018-09-19T18:36:15.088Z,66.00
2018-09-19T18:38:43.770Z,66.50
2018-09-19T18:41:12.228Z,66.60
2018-09-19T18:43:40.619Z,66.70
2018-09-19T18:46:09.078Z,67.20
2018-09-19T18:48:37.503Z,67.50
2018-09-19T18:51:06.035Z,67.90
2018-09-19T18:53:34.704Z,68.00
2018-09-19T18:56:03.166Z,68.30
2018-09-19T18:58:31.713Z,68.30
2018-09-19T19:01:01.272Z,68.70
2018-09-19T19:03:29.716Z,69.30
2018-09-19T19:06:01.290Z,69.40
2018-09-19T19:08:29.985Z,69.80
2018-09-19T19:10:59.216Z,70.00
2018-09-19T19:13:27.777Z,70.40
2018-09-19T19:15:56.207Z,70.90
2018-09-19T19:18:25.624Z,71.20
2018-09-19T19:20:54.023Z,71.30
2018-09-19T19:23:22.379Z,72.00
2018-09-19T19:25:51.068Z,72.30
2018-09-19T19:28:19.611Z,72.80
2018-09-19T19:30:49.061Z,73.10
2018-09-19T19:33:18.447Z,73.40
2018-09-19T19:35:47.041Z,73.80
2018-09-19T19:38:16.222Z,74.50
2018-09-19T19:40:44.629Z,74.60
2018-09-19T19:43:13.079Z,75.10
2018-09-19T19:45:42.683Z,75.20
2018-09-19T19:48:11.093Z,75.20
2018-09-19T19:50:39.608Z,75.70
2018-09-19T19:53:08.066Z,75.80
2018-09-19T19:55:47.928Z,76.20
2018-09-19T19:58:17.046Z,75.90
2018-09-19T20:00:47.037Z,76.80
2018-09-19T20:03:15.699Z,77.60
2018-09-19T20:05:45.247Z,77.90
2018-09-19T20:08:14.640Z,77.50
2018-09-19T20:10:43.170Z,78.70
2018-09-19T20:13:11.687Z,78.10
2018-09-19T20:15:40.288Z,78.20
2018-09-19T20:18:09.938Z,78.60
2018-09-19T20:20:40.900Z,78.70
2018-09-19T20:23:11.691Z,79.00
2018-09-19T20:25:43.474Z,79.30
2018-09-19T20:28:12.159Z,79.50
2018-09-19T20:30:42.335Z,79.90
2018-09-19T20:33:19.050Z,80.30
2018-09-19T20:38:24.506Z,81.00
2018-09-19T20:41:01.185Z,82.00
2018-09-19T20:43:35.547Z,82.20
2018-09-19T20:46:08.870Z,82.90
2018-09-19T20:48:48.711Z,83.10
2018-09-19T20:51:21.315Z,83.20
2018-09-19T20:54:02.707Z,83.50
2018-09-19T20:56:50.485Z,83.90
2018-09-19T20:59:34.356Z,85.30
2018-09-19T21:02:15.366Z,84.90
2018-09-19T21:05:01.887Z,85.90
2018-09-19T21:07:40.610Z,85.40
2018-09-19T21:10:14.381Z,85.30
2018-09-19T21:12:43.967Z,85.40
2018-09-19T21:15:15.030Z,85.30
2018-09-19T21:17:52.017Z,85.50
2018-09-19T21:20:23.469Z,85.40
2018-09-19T21:23:05.380Z,85.60
2018-09-19T21:25:48.024Z,85.90
2018-09-19T21:28:17.655Z,86.10
2018-09-19T21:30:46.731Z,86.30
2018-09-19T21:33:16.927Z,86.90
2018-09-19T21:35:56.141Z,87.10
2018-09-19T21:38:30.492Z,87.80
2018-09-19T21:41:01.391Z,88.80
2018-09-19T22:37:59.886Z,89.50
2018-09-19T22:40:28.274Z,97.20
2018-09-19T22:42:56.680Z,97.40
2018-09-19T22:45:25.131Z,97.70
2018-09-19T22:47:54.044Z,98.10
2018-09-19T22:50:22.475Z,98.30
2018-09-19T22:52:50.929Z,98.60
2018-09-19T22:55:20.047Z,98.50
2018-09-19T22:57:48.426Z,98.60
2018-09-19T23:00:16.784Z,98.80
2018-09-19T23:02:45.086Z,98.90
2018-09-19T23:05:13.425Z,99.20
2018-09-19T23:07:41.829Z,99.60
2018-09-19T23:10:10.265Z,99.90
2018-09-19T23:12:38.691Z,99.90
2018-09-19T23:15:07.097Z,99.90
2018-09-19T23:17:35.427Z,99.90
2018-09-19T23:20:03.991Z,99.90
2018-09-19T23:22:32.323Z,99.90
2018-09-19T23:25:00.764Z,99.90
2018-09-19T23:27:29.199Z,99.90
2018-09-19T23:29:57.901Z,99.90
2018-09-19T23:32:26.271Z,99.90
2018-09-19T23:34:54.626Z,99.90
2018-09-19T23:37:22.968Z,99.90
2018-09-19T23:39:51.380Z,99.90
2018-09-19T23:42:19.731Z,99.90
